Time;durP1;ratioP1;P1;durP2;ratioP2;P2;SDS_P1;SDS_P2;PMS_P1;PMS_P2;Temp;Humidity;BMP_temperature;BMP_pressure;BME280_temperature;BME280_humidity;BME280_pressure;Samples;Min_cycle;Max_cycle;Signal;HPM_P1;HPM_P2
2022/04/26 21:38:39;;;;;;;8.05;5.95;;;;;;;12.72;68.97;100104.64;1723947;81;21981;-80
2022/04/26 21:41:08;;;;;;;57.38;50.40;;;;;;;12.72;69.01;100105.13;1726443;82;21075;-84
2022/04/26 21:43:35;;;;;;;9.93;8.73;;;;;;;12.72;69.11;100113.09;1702150;82;21076;-87
2022/04/26 21:46:04;;;;;;;7.20;6.10;;;;;;;12.74;69.21;100113.77;1738007;80;21094;-78
2022/04/26 21:48:32;;;;;;;6.60;5.90;;;;;;;12.74;69.22;100116.42;1739318;80;21032;-78
2022/04/26 21:53:47;;;;;;;7.40;6.08;;;;;;;12.75;69.29;100114.98;1713588;80;21029;-78
2022/04/26 21:56:14;;;;;;;7.00;5.87;;;;;;;12.77;69.30;100120.14;1723221;81;21523;-79
2022/04/26 21:58:43;;;;;;;7.30;6.25;;;;;;;12.77;69.27;100119.64;1743329;80;21119;-78
2022/04/26 22:01:10;;;;;;;7.17;6.15;;;;;;;12.78;69.31;100120.48;1736716;80;21497;-79
2022/04/26 22:03:41;;;;;;;6.67;5.95;;;;;;;12.80;69.31;100118.52;1739178;80;22639;-76
2022/04/26 22:06:09;;;;;;;6.72;6.03;;;;;;;12.83;69.27;100118.22;1723646;80;20952;-77
2022/04/26 22:08:37;;;;;;;6.90;6.20;;;;;;;12.86;69.16;100118.80;1739675;81;21140;-75
2022/04/26 22:11:05;;;;;;;7.35;6.25;;;;;;;12.85;69.19;100127.73;1736786;81;21495;-80
2022/04/26 22:13:35;;;;;;;7.40;5.83;;;;;;;12.85;69.28;100129.54;1742957;80;21071;-77
2022/04/26 22:16:01;;;;;;;6.60;5.90;;;;;;;12.81;69.32;100136.92;1730276;80;21937;-73
2022/04/26 22:18:30;;;;;;;7.08;6.37;;;;;;;12.81;69.40;100141.39;1733392;82;21479;-74
2022/04/26 22:20:58;;;;;;;6.47;5.45;;;;;;;12.81;69.54;100144.04;1722643;81;21051;-76
2022/04/26 22:23:28;;;;;;;7.83;6.35;;;;;;;12.82;69.75;100144.38;1715892;81;21111;-74
2022/04/26 22:25:55;;;;;;;7.33;6.60;;;;;;;12.79;69.97;100146.84;1735680;80;21178;-78
2022/04/26 22:28:23;;;;;;;6.90;6.20;;;;;;;12.73;70.49;100139.93;1720900;82;21658;-75
2022/04/26 22:31:21;;;;;;;6.10;5.50;;;;;;;12.67;70.79;100140.52;1739265;80;20993;-75
2022/04/26 22:33:51;;;;;;;6.35;5.58;;;;;;;12.63;71.09;100140.42;1711744;82;21019;-77
2022/04/26 22:36:31;;;;;;;7.30;5.58;;;;;;;12.53;71.55;100137.78;1676182;83;21066;-76
2022/04/26 22:39:28;;;;;;;6.62;6.03;;;;;;;12.49;71.83;100145.19;1659048;84;21569;-75
2022/04/26 22:41:55;;;;;;;6.80;5.70;;;;;;;12.43;72.18;100138.27;1667890;84;21891;-76
2022/04/26 22:44:59;;;;;;;6.45;5.45;;;;;;;12.38;72.35;100137.88;1693496;84;21582;-76
2022/04/26 22:48:02;;;;;;;6.37;5.40;;;;;;;12.32;72.48;100132.14;1735295;80;21542;-77
2022/04/26 22:50:36;;;;;;;6.70;6.00;;;;;;;12.26;72.72;100133.20;1718155;80;21054;-75
2022/04/26 22:53:03;;;;;;;7.08;6.00;;;;;;;12.19;72.92;100132.91;1718126;81;21063;-74
2022/04/26 22:55:32;;;;;;;8.23;6.22;;;;;;;12.12;72.95;100132.27;1745370;80;21869;-78
2022/04/26 22:57:59;;;;;;;6.30;5.70;;;;;;;12.08;73.11;100136.17;1727483;82;21044;-78
2022/04/26 23:00:27;;;;;;;8.30;6.03;;;;;;;12.03;73.18;100132.11;1730724;81;21028;-76
2022/04/26 23:02:56;;;;;;;7.97;6.45;;;;;;;11.99;73.20;100131.22;1725110;82;21101;-77
2022/04/26 23:05:26;;;;;;;6.67;5.85;;;;;;;11.96;73.24;100134.95;1743265;80;21427;-77
2022/04/26 23:07:55;;;;;;;7.67;6.10;;;;;;;11.91;73.28;100129.73;1727515;81;21846;-75
2022/04/26 23:10:23;;;;;;;7.28;5.92;;;;;;;11.84;73.28;100140.50;1715406;82;21079;-75
2022/04/26 23:15:21;;;;;;;7.25;6.55;;;;;;;11.74;73.34;100147.05;1722012;80;21040;-77
2022/04/26 23:17:50;;;;;;;7.53;5.87;;;;;;;11.72;73.40;100146.36;1702421;83;21001;-77
2022/04/26 23:20:19;;;;;;;7.42;6.60;;;;;;;11.66;73.49;100146.40;1714250;81;21634;-76
2022/04/26 23:22:48;;;;;;;8.28;6.90;;;;;;;11.60;73.56;100150.09;1723741;81;21008;-77
2022/04/26 23:25:16;;;;;;;7.60;6.80;;;;;;;11.56;73.66;100148.17;1717762;82;21011;-76
2022/04/26 23:27:44;;;;;;;8.23;6.78;;;;;;;11.53;73.78;100151.09;1727997;80;21001;-75
2022/04/26 23:30:13;;;;;;;7.40;6.55;;;;;;;11.52;73.89;100149.91;1729874;82;21040;-74
2022/04/26 23:32:40;;;;;;;8.53;6.08;;;;;;;11.49;73.97;100154.98;1738177;82;21813;-73
2022/04/26 23:37:57;;;;;;;7.83;6.50;;;;;;;11.50;74.06;100166.41;1710380;81;21120;-73
2022/04/26 23:40:26;;;;;;;7.28;6.30;;;;;;;11.50;74.12;100173.02;1721020;82;21045;-75
2022/04/26 23:42:57;;;;;;;7.20;6.40;;;;;;;11.51;74.17;100172.87;1725547;82;22163;-76
2022/04/26 23:45:24;;;;;;;7.30;6.55;;;;;;;11.52;74.16;100171.91;1723201;82;21911;-77
2022/04/26 23:47:51;;;;;;;9.30;6.75;;;;;;;11.52;74.13;100169.26;1725584;80;22021;-77
2022/04/26 23:53:08;;;;;;;8.40;6.97;;;;;;;11.52;74.12;100182.97;1713377;81;21029;-76
2022/04/26 23:55:40;;;;;;;8.00;7.08;;;;;;;11.51;74.08;100180.81;1738173;81;21596;-74
2022/04/26 23:58:08;;;;;;;8.78;7.20;;;;;;;11.48;74.04;100181.05;1733105;80;21975;-74
